Krum, Texas
Current Conditions -  °F | °C
As of 4:53 PM on Thursday 18 Dec 2014 (Local Time) from KDTO Reporting Station
Overcast Overcast  
Wind Chill: 47°   Ceiling: 2200
Heat Index: 49°   Visibility: 10mi
Dew Point: 43°   Wind: 6mph
Humidity: 80%   Direction: 40°NE
Pressure: 30.12"   Gusts: NA
Location:  33.26°N, 97.24°W
Report Text: KDTO 182253Z 04005KT 10SM OVC022 09/06 A3012 RMK AO2 SLP200 T00940061
Loading
Personal Weather Stations






























Interactive Weather Map New forecast layout! Learn more

10-Day Weather Forecast

Advertisements
Track Severe Weather on mobile